createdAt,value
2023-03-04T00:01:11.838Z,74.25
2023-03-04T00:03:41.864Z,74.25
2023-03-04T00:06:12.035Z,74.35
2023-03-04T00:08:45.504Z,74.26
2023-03-04T00:11:18.058Z,74.42
2023-03-04T00:13:47.969Z,74.33
2023-03-04T00:16:18.220Z,74.11
2023-03-04T00:18:48.174Z,74.16
2023-03-04T00:21:18.165Z,74.20
2023-03-04T00:23:48.202Z,74.12
2023-03-04T00:26:21.210Z,73.83
2023-03-04T00:28:55.649Z,73.92
2023-03-04T00:31:34.312Z,73.94
2023-03-04T00:34:06.938Z,74.11
2023-03-04T00:36:40.714Z,73.82
2023-03-04T00:39:13.199Z,73.59
2023-03-04T00:41:48.233Z,73.75
2023-03-04T00:44:20.696Z,74.07
2023-03-04T00:46:53.657Z,73.89
2023-03-04T00:49:26.642Z,73.77
2023-03-04T00:52:00.383Z,74.02
2023-03-04T00:54:32.703Z,73.93
2023-03-04T00:57:18.547Z,73.97
2023-03-04T00:59:50.994Z,73.84
2023-03-04T01:02:21.624Z,74.23
2023-03-04T01:04:51.597Z,74.26
2023-03-04T01:07:21.838Z,74.22
2023-03-04T01:09:51.857Z,74.08
2023-03-04T01:12:24.419Z,74.16
2023-03-04T01:14:54.353Z,74.05
2023-03-04T01:17:24.663Z,74.16
2023-03-04T01:19:54.768Z,74.18
2023-03-04T01:22:25.010Z,74.10
2023-03-04T01:24:54.938Z,74.16
2023-03-04T01:27:27.771Z,73.96
2023-03-04T01:29:57.697Z,73.95
2023-03-04T01:32:27.861Z,74.05
2023-03-04T01:34:57.912Z,73.99
2023-03-04T01:37:27.899Z,74.13
2023-03-04T01:39:57.979Z,74.24
2023-03-04T01:42:34.626Z,74.26
2023-03-04T01:45:05.088Z,74.22
2023-03-04T01:47:37.809Z,74.12
2023-03-04T01:50:19.916Z,74.32
2023-03-04T01:52:50.123Z,74.21
2023-03-04T01:55:21.680Z,74.19
2023-03-04T01:57:57.416Z,74.08
2023-03-04T02:00:31.097Z,74.29
2023-03-04T02:03:03.935Z,74.29
2023-03-04T02:05:34.210Z,74.17
2023-03-04T02:08:05.858Z,74.50
2023-03-04T02:10:36.672Z,74.37
2023-03-04T02:13:11.885Z,74.18
2023-03-04T02:15:42.389Z,74.23
2023-03-04T02:18:19.009Z,74.19
2023-03-04T02:20:59.608Z,74.19
2023-03-04T02:23:35.967Z,74.37
2023-03-04T02:26:22.800Z,74.19
2023-03-04T02:28:57.044Z,74.21
2023-03-04T02:31:30.511Z,74.41
2023-03-04T02:34:03.363Z,74.40
2023-03-04T02:36:35.083Z,74.17
2023-03-04T02:39:08.290Z,74.10
2023-03-04T02:41:41.478Z,74.19
2023-03-04T02:44:21.045Z,74.26
2023-03-04T02:46:52.368Z,74.29
2023-03-04T02:49:23.804Z,73.97
2023-03-04T02:51:55.945Z,74.21
2023-03-04T02:54:27.156Z,74.28
2023-03-04T02:57:02.445Z,74.21
2023-03-04T02:59:33.179Z,74.13
2023-03-04T03:02:03.540Z,73.83
2023-03-04T03:04:34.056Z,73.91
2023-03-04T03:07:04.250Z,73.91
2023-03-04T03:09:34.935Z,73.92
2023-03-04T03:12:08.822Z,74.08
2023-03-04T03:14:38.943Z,74.05
2023-03-04T03:17:11.193Z,74.15
2023-03-04T03:19:41.593Z,74.27
2023-03-04T03:22:12.897Z,74.06
2023-03-04T03:24:43.215Z,74.03
2023-03-04T03:27:15.861Z,74.24
2023-03-04T03:29:46.111Z,74.24
2023-03-04T03:32:16.332Z,74.23
2023-03-04T03:34:46.350Z,74.10
2023-03-04T03:37:16.982Z,74.13
2023-03-04T03:39:50.360Z,74.09
2023-03-04T03:42:22.850Z,74.22
2023-03-04T03:44:52.880Z,73.99
2023-03-04T03:47:22.894Z,74.26
2023-03-04T03:49:53.162Z,73.98
2023-03-04T03:52:23.093Z,74.21
2023-03-04T03:54:53.147Z,74.30
2023-03-04T03:57:31.205Z,74.16
2023-03-04T04:00:01.490Z,74.16
2023-03-04T04:02:42.869Z,73.96
2023-03-04T04:05:14.245Z,73.91
2023-03-04T04:07:44.995Z,74.18
2023-03-04T04:10:15.235Z,74.11
2023-03-04T04:12:47.991Z,74.02
2023-03-04T04:15:17.921Z,73.98
2023-03-04T04:17:47.896Z,74.28
2023-03-04T04:20:17.986Z,74.21
2023-03-04T04:22:48.113Z,74.47
2023-03-04T04:25:18.320Z,74.56
2023-03-04T04:27:50.771Z,74.49
2023-03-04T04:30:20.946Z,74.96
2023-03-04T04:32:51.007Z,75.16
2023-03-04T04:35:21.615Z,75.85
2023-03-04T04:37:51.564Z,75.90
2023-03-04T04:40:21.881Z,76.57
2023-03-04T04:42:54.486Z,76.51
2023-03-04T04:45:24.863Z,76.58
2023-03-04T04:47:55.746Z,76.60
2023-03-04T04:50:25.896Z,76.59
2023-03-04T04:52:56.074Z,77.07
2023-03-04T04:55:26.147Z,76.82
2023-03-04T04:57:58.778Z,76.72
2023-03-04T05:00:29.139Z,76.75
2023-03-04T05:02:59.065Z,76.75
2023-03-04T05:05:28.933Z,76.85
2023-03-04T05:07:58.907Z,76.76
2023-03-04T05:10:28.765Z,77.15
2023-03-04T05:13:01.845Z,76.97
2023-03-04T05:15:31.942Z,76.71
2023-03-04T05:18:02.006Z,76.89
2023-03-04T05:20:31.923Z,76.73
2023-03-04T05:23:01.964Z,76.73
2023-03-04T05:25:32.049Z,76.80
2023-03-04T05:28:05.110Z,76.69
2023-03-04T05:30:35.248Z,76.67
2023-03-04T05:33:05.381Z,76.84
2023-03-04T05:35:35.387Z,76.91
2023-03-04T05:38:05.514Z,76.66
2023-03-04T05:40:35.756Z,76.85
2023-03-04T05:43:08.738Z,76.79
2023-03-04T05:45:39.214Z,76.96
2023-03-04T05:48:09.503Z,77.05
2023-03-04T05:50:39.540Z,76.91
2023-03-04T05:53:09.615Z,76.81
2023-03-04T05:55:39.745Z,76.78
2023-03-04T05:58:12.314Z,76.84
2023-03-04T06:00:42.277Z,76.97
2023-03-04T06:03:17.890Z,76.83
2023-03-04T06:05:48.653Z,76.91
2023-03-04T06:08:18.571Z,76.83
2023-03-04T06:10:48.938Z,76.59
2023-03-04T06:13:21.817Z,76.76
2023-03-04T06:15:56.866Z,76.77
2023-03-04T06:18:28.125Z,76.96
2023-03-04T06:21:00.686Z,77.09
2023-03-04T06:23:31.281Z,77.02
2023-03-04T06:26:04.009Z,77.48
2023-03-04T06:28:36.511Z,77.26
2023-03-04T06:31:06.658Z,77.76
2023-03-04T06:33:36.954Z,77.56
2023-03-04T06:36:07.286Z,77.59
2023-03-04T06:38:37.367Z,77.74
2023-03-04T06:41:11.691Z,77.58
2023-03-04T06:43:44.306Z,77.39
2023-03-04T06:46:14.271Z,77.34
2023-03-04T06:48:44.304Z,77.07
2023-03-04T06:51:16.495Z,76.77
2023-03-04T06:53:46.780Z,76.85
2023-03-04T06:56:19.768Z,76.88
2023-03-04T06:58:52.480Z,77.07
2023-03-04T07:01:24.617Z,76.92
2023-03-04T07:03:56.206Z,77.12
2023-03-04T07:06:29.203Z,77.23
2023-03-04T07:08:59.950Z,77.12
2023-03-04T07:11:30.047Z,77.57
2023-03-04T07:14:02.693Z,77.71
2023-03-04T07:16:33.128Z,77.75
2023-03-04T07:19:03.865Z,77.45
2023-03-04T07:21:33.825Z,77.59
2023-03-04T07:24:07.136Z,77.88
2023-03-04T07:26:40.560Z,77.75
2023-03-04T07:29:16.679Z,77.88
2023-03-04T07:31:46.966Z,77.88
2023-03-04T07:34:17.829Z,78.32
2023-03-04T07:36:48.278Z,78.20
2023-03-04T07:39:18.449Z,78.28
2023-03-04T07:41:48.958Z,77.77
2023-03-04T07:44:22.231Z,77.89
2023-03-04T07:46:59.504Z,77.92
2023-03-04T07:49:29.553Z,77.75
2023-03-04T07:52:08.966Z,77.56
2023-03-04T07:54:39.366Z,77.69
2023-03-04T07:57:09.363Z,77.44
2023-03-04T07:59:42.057Z,77.49
2023-03-04T08:02:13.943Z,77.68
2023-03-04T08:04:44.416Z,78.05
2023-03-04T08:07:14.330Z,78.16
2023-03-04T08:09:44.449Z,78.21
2023-03-04T08:12:14.424Z,78.17
2023-03-04T08:14:47.496Z,78.06
2023-03-04T08:17:17.590Z,78.18
2023-03-04T08:19:47.781Z,78.59
2023-03-04T08:22:17.718Z,78.73
2023-03-04T08:24:47.733Z,78.88
2023-03-04T08:27:17.595Z,78.88
2023-03-04T08:29:50.163Z,78.82
2023-03-04T08:32:20.214Z,78.98
2023-03-04T08:34:50.468Z,78.89
2023-03-04T08:37:20.481Z,78.84
2023-03-04T08:39:50.538Z,78.92
2023-03-04T08:42:20.627Z,78.21
2023-03-04T08:44:53.412Z,78.46
2023-03-04T08:47:23.447Z,78.39
2023-03-04T08:49:53.834Z,77.99
2023-03-04T08:52:23.975Z,78.65
2023-03-04T08:54:54.084Z,78.58
2023-03-04T08:57:24.174Z,79.26
2023-03-04T08:59:56.800Z,79.18
2023-03-04T09:02:26.930Z,79.76
2023-03-04T09:04:56.929Z,80.07
2023-03-04T09:07:27.162Z,80.59
2023-03-04T09:09:57.161Z,80.67
2023-03-04T09:12:27.577Z,80.73
2023-03-04T09:15:10.717Z,80.65
2023-03-04T09:17:41.607Z,80.73
2023-03-04T09:20:14.369Z,80.43
2023-03-04T09:22:45.391Z,79.89
2023-03-04T09:25:17.538Z,78.85
2023-03-04T09:27:47.697Z,78.31
2023-03-04T09:30:21.203Z,77.76
2023-03-04T09:32:51.436Z,77.62
2023-03-04T09:35:21.876Z,77.01
2023-03-04T09:37:53.029Z,77.67
2023-03-04T09:40:27.360Z,77.90
2023-03-04T09:43:00.322Z,78.32
2023-03-04T09:45:41.251Z,78.73
2023-03-04T09:48:16.544Z,78.84
2023-03-04T09:50:57.978Z,78.76
2023-03-04T09:53:36.985Z,79.10
2023-03-04T09:56:08.946Z,78.98
2023-03-04T09:58:49.758Z,79.21
2023-03-04T10:01:26.680Z,79.27
2023-03-04T10:04:01.197Z,79.58
2023-03-04T10:06:34.263Z,79.38
2023-03-04T10:09:07.175Z,78.69
2023-03-04T10:11:40.370Z,78.44
2023-03-04T10:14:36.935Z,77.72
2023-03-04T10:17:17.116Z,76.96
2023-03-04T10:19:57.221Z,76.91
2023-03-04T10:22:34.888Z,76.68
2023-03-04T10:25:19.086Z,77.04
2023-03-04T10:27:53.664Z,77.60
2023-03-04T10:30:35.333Z,77.68
2023-03-04T10:33:14.873Z,77.57
2023-03-04T10:35:49.041Z,77.59
2023-03-04T10:38:19.247Z,78.27
2023-03-04T10:40:49.396Z,77.30
2023-03-04T10:43:21.293Z,77.01
2023-03-04T10:45:51.699Z,76.12
2023-03-04T10:48:27.710Z,75.50
2023-03-04T10:51:13.232Z,76.00
2023-03-04T10:53:45.976Z,75.77
2023-03-04T10:56:48.363Z,75.00
2023-03-04T10:59:35.597Z,73.83
2023-03-04T11:02:17.687Z,74.13
2023-03-04T11:04:56.244Z,73.22
2023-03-04T11:07:28.725Z,73.67
2023-03-04T11:09:58.859Z,74.50
2023-03-04T11:12:37.018Z,75.57
2023-03-04T11:15:20.018Z,76.05
2023-03-04T11:17:53.873Z,76.62
2023-03-04T11:20:38.170Z,76.99
2023-03-04T11:23:13.297Z,76.70
2023-03-04T11:25:46.962Z,76.65
2023-03-04T11:28:22.001Z,75.73
2023-03-04T11:30:58.475Z,75.49
2023-03-04T11:33:36.220Z,74.84
2023-03-04T11:36:23.821Z,74.77
2023-03-04T11:38:54.866Z,74.12
2023-03-04T11:41:32.992Z,74.29
2023-03-04T11:44:03.810Z,74.25
2023-03-04T11:46:56.979Z,74.19
2023-03-04T11:49:51.589Z,73.60
2023-03-04T11:52:35.673Z,72.91
2023-03-04T11:55:27.910Z,73.43
2023-03-04T11:58:11.347Z,73.47
2023-03-04T12:00:51.940Z,74.02
2023-03-04T12:03:43.640Z,74.23
2023-03-04T12:06:20.453Z,74.37
2023-03-04T12:09:13.722Z,74.09
2023-03-04T12:11:54.470Z,73.62
2023-03-04T12:14:32.750Z,73.09
2023-03-04T12:17:28.146Z,71.57
2023-03-04T12:20:19.246Z,72.32
2023-03-04T12:22:54.267Z,71.77
2023-03-04T12:25:55.592Z,69.57
2023-03-04T12:28:38.972Z,70.94
2023-03-04T12:31:36.949Z,71.51
2023-03-04T12:34:30.170Z,71.37
2023-03-04T12:37:20.234Z,70.83
2023-03-04T12:40:08.987Z,71.55
2023-03-04T12:42:51.411Z,71.56
2023-03-04T12:45:25.558Z,71.71
2023-03-04T12:48:05.071Z,72.21
2023-03-04T12:50:43.593Z,71.98
2023-03-04T12:53:24.167Z,71.94
2023-03-04T12:55:58.361Z,72.53
2023-03-04T12:58:32.872Z,69.79
2023-03-04T13:01:09.497Z,72.25
2023-03-04T13:03:45.175Z,71.48
2023-03-04T13:06:23.929Z,71.51
2023-03-04T13:09:05.207Z,72.15
2023-03-04T13:11:54.860Z,72.40
2023-03-04T13:14:35.635Z,72.20
2023-03-04T13:17:46.814Z,71.93
2023-03-04T13:20:25.265Z,72.04
2023-03-04T13:22:58.461Z,71.85
2023-03-04T13:25:44.148Z,71.78
2023-03-04T13:28:28.428Z,71.12
2023-03-04T13:31:24.357Z,71.38
2023-03-04T13:33:58.293Z,71.36
2023-03-04T13:37:00.000Z,70.70
2023-03-04T13:39:33.553Z,69.99
2023-03-04T13:42:04.187Z,69.68
2023-03-04T13:45:06.808Z,67.90
2023-03-04T13:47:54.362Z,69.82
2023-03-04T13:50:39.625Z,68.48
2023-03-04T13:53:43.511Z,69.32
2023-03-04T13:56:38.442Z,70.04
2023-03-04T13:59:32.385Z,67.32
2023-03-04T14:02:04.768Z,70.27
2023-03-04T14:04:40.135Z,70.44
2023-03-04T14:07:26.096Z,70.66
2023-03-04T14:10:04.852Z,70.14
2023-03-04T14:12:37.576Z,70.28
2023-03-04T14:15:09.857Z,70.16
2023-03-04T14:17:40.562Z,70.20
2023-03-04T14:20:27.428Z,70.17
2023-03-04T14:22:58.283Z,69.75
2023-03-04T14:25:29.985Z,70.03
2023-03-04T14:28:09.716Z,69.73
2023-03-04T14:30:43.445Z,70.34
2023-03-04T14:33:17.871Z,68.10
2023-03-04T14:35:54.060Z,70.61
2023-03-04T14:38:27.505Z,70.81
2023-03-04T14:41:03.750Z,71.17
2023-03-04T14:43:39.014Z,71.50
2023-03-04T14:46:14.469Z,71.87
2023-03-04T14:48:50.427Z,71.47
2023-03-04T14:51:36.440Z,71.13
2023-03-04T14:54:07.264Z,70.93
2023-03-04T14:56:38.536Z,71.28
2023-03-04T14:59:08.496Z,71.32
2023-03-04T15:01:40.298Z,71.00
2023-03-04T15:04:12.272Z,71.16
2023-03-04T15:06:54.465Z,71.08
2023-03-04T15:09:26.749Z,70.96
2023-03-04T15:12:05.968Z,70.93
2023-03-04T15:14:46.764Z,71.14
2023-03-04T15:17:29.029Z,70.79
2023-03-04T15:20:04.909Z,70.96
2023-03-04T15:22:38.646Z,71.02
2023-03-04T15:25:09.249Z,71.07
2023-03-04T15:27:40.746Z,70.95
2023-03-04T15:30:19.817Z,71.18
2023-03-04T15:32:50.155Z,71.30
2023-03-04T15:35:22.261Z,71.50
2023-03-04T15:37:55.389Z,71.74
2023-03-04T15:40:32.663Z,71.21
2023-03-04T15:43:05.315Z,71.61
2023-03-04T15:45:37.979Z,71.65
2023-03-04T15:48:09.683Z,71.67
2023-03-04T15:50:42.605Z,71.55
2023-03-04T15:53:19.465Z,71.71
2023-03-04T15:55:49.990Z,71.99
2023-03-04T15:58:20.124Z,72.09
2023-03-04T16:00:50.090Z,72.32
2023-03-04T16:03:22.320Z,72.00
2023-03-04T16:05:54.381Z,72.17
2023-03-04T16:08:27.765Z,72.03
2023-03-04T16:10:57.743Z,72.17
2023-03-04T16:13:27.801Z,72.07
2023-03-04T16:15:57.830Z,71.86
2023-03-04T16:18:27.996Z,71.78
2023-03-04T16:20:58.032Z,71.90
2023-03-04T16:23:30.928Z,71.88
2023-03-04T16:26:00.885Z,71.74
2023-03-04T16:28:30.908Z,71.82
2023-03-04T16:31:00.979Z,71.96
2023-03-04T16:33:30.894Z,71.33
2023-03-04T16:36:01.383Z,71.19
2023-03-04T16:38:35.566Z,71.31
2023-03-04T16:41:06.232Z,71.08
2023-03-04T16:43:36.148Z,71.17
2023-03-04T16:46:06.468Z,71.23
2023-03-04T16:48:37.329Z,71.22
2023-03-04T16:51:15.436Z,71.08
2023-03-04T16:53:52.372Z,71.04
2023-03-04T16:56:23.190Z,70.89
2023-03-04T16:58:54.246Z,71.05
2023-03-04T17:01:27.039Z,71.01
2023-03-04T17:03:58.250Z,71.51
2023-03-04T17:06:28.377Z,71.08
2023-03-04T17:09:01.088Z,71.48
2023-03-04T17:11:31.456Z,71.42
2023-03-04T17:14:02.745Z,71.06
2023-03-04T17:16:32.703Z,71.10
2023-03-04T17:19:03.091Z,71.25
2023-03-04T17:21:33.536Z,71.22
2023-03-04T17:24:11.059Z,70.93
2023-03-04T17:26:42.784Z,71.17
2023-03-04T17:29:12.829Z,70.90
2023-03-04T17:31:42.940Z,71.06
2023-03-04T17:34:13.760Z,71.02
2023-03-04T17:36:43.732Z,71.33
2023-03-04T17:39:16.556Z,71.35
2023-03-04T17:41:46.629Z,71.54
2023-03-04T17:44:17.497Z,71.35
2023-03-04T17:46:50.624Z,71.47
2023-03-04T17:49:20.621Z,71.32
2023-03-04T17:51:51.633Z,71.58
2023-03-04T17:54:24.268Z,71.53
2023-03-04T17:56:54.489Z,71.74
2023-03-04T17:59:24.748Z,71.72
2023-03-04T18:01:54.796Z,71.78
2023-03-04T18:04:25.023Z,71.98
2023-03-04T18:06:55.002Z,72.05
2023-03-04T18:09:27.586Z,72.29
2023-03-04T18:11:57.531Z,72.31
2023-03-04T18:14:27.472Z,72.50
2023-03-04T18:16:57.356Z,72.42
2023-03-04T18:19:27.395Z,72.94
2023-03-04T18:21:57.592Z,72.78
2023-03-04T18:24:30.174Z,73.08
2023-03-04T18:27:00.169Z,72.97
2023-03-04T18:29:30.316Z,72.91
2023-03-04T18:32:00.323Z,73.00
2023-03-04T18:34:30.403Z,73.00
2023-03-04T18:37:00.246Z,73.13
2023-03-04T18:39:32.845Z,73.15
2023-03-04T18:42:04.921Z,73.06
2023-03-04T18:44:35.136Z,73.38
2023-03-04T18:47:07.013Z,73.42
2023-03-04T18:49:37.269Z,73.33
2023-03-04T18:52:07.382Z,73.42
2023-03-04T18:54:40.068Z,73.78
2023-03-04T18:57:12.753Z,73.77
2023-03-04T18:59:47.322Z,73.76
2023-03-04T19:02:22.481Z,73.55
2023-03-04T19:04:54.187Z,73.73
2023-03-04T19:07:24.336Z,73.68
2023-03-04T19:09:57.197Z,73.85
2023-03-04T19:12:27.268Z,73.86
2023-03-04T19:14:57.271Z,73.71
2023-03-04T19:17:31.110Z,73.65
2023-03-04T19:20:01.095Z,73.94
2023-03-04T19:22:31.610Z,73.65
2023-03-04T19:25:04.364Z,74.03
2023-03-04T19:27:34.492Z,74.07
2023-03-04T19:30:04.687Z,73.81
2023-03-04T19:32:34.941Z,74.14
2023-03-04T19:35:05.126Z,74.22
2023-03-04T19:37:35.068Z,74.21
2023-03-04T19:40:09.203Z,74.20
2023-03-04T19:42:39.451Z,74.15
2023-03-04T19:45:12.335Z,73.74
2023-03-04T19:47:43.149Z,73.92
2023-03-04T19:50:15.957Z,73.78
2023-03-04T19:52:46.373Z,73.42
2023-03-04T19:55:19.241Z,73.54
2023-03-04T19:57:49.264Z,73.48
2023-03-04T20:00:22.027Z,73.29
2023-03-04T20:02:53.618Z,73.69
2023-03-04T20:05:23.840Z,73.88
2023-03-04T20:07:53.924Z,73.72
2023-03-04T20:10:26.686Z,73.80
2023-03-04T20:12:57.690Z,73.90
2023-03-04T20:15:27.859Z,74.10
2023-03-04T20:17:57.962Z,74.15
2023-03-04T20:20:29.339Z,74.03
2023-03-04T20:22:59.645Z,74.00
2023-03-04T20:25:32.521Z,74.23
2023-03-04T20:28:02.551Z,74.38
2023-03-04T20:30:32.523Z,74.54
2023-03-04T20:33:02.684Z,74.72
2023-03-04T20:35:32.625Z,74.49
2023-03-04T20:38:03.413Z,74.95
2023-03-04T20:40:36.103Z,75.11
2023-03-04T20:43:07.121Z,75.07
2023-03-04T20:45:39.217Z,75.21
2023-03-04T20:48:09.817Z,74.95
2023-03-04T20:50:39.845Z,75.12
2023-03-04T20:53:09.900Z,74.95
2023-03-04T20:55:42.510Z,74.92
2023-03-04T20:58:15.324Z,75.08
2023-03-04T21:00:45.311Z,74.94
2023-03-04T21:03:15.580Z,75.13
2023-03-04T21:05:45.591Z,75.06
2023-03-04T21:08:16.107Z,75.26
2023-03-04T21:10:51.674Z,75.32
2023-03-04T21:13:23.533Z,75.26
2023-03-04T21:15:53.642Z,75.08
2023-03-04T21:18:23.811Z,75.14
2023-03-04T21:20:54.638Z,75.08
2023-03-04T21:23:24.719Z,75.26
2023-03-04T21:25:57.312Z,75.19
2023-03-04T21:28:27.175Z,75.45
2023-03-04T21:30:57.186Z,75.12
2023-03-04T21:33:29.918Z,75.38
2023-03-04T21:35:59.944Z,75.52
2023-03-04T21:38:29.925Z,75.53
2023-03-04T21:41:02.590Z,75.38
2023-03-04T21:43:32.551Z,75.42
2023-03-04T21:46:02.650Z,75.62
2023-03-04T21:48:32.831Z,75.38
2023-03-04T21:51:05.500Z,75.41
2023-03-04T21:53:36.000Z,75.64
2023-03-04T21:56:08.926Z,75.46
2023-03-04T21:58:41.617Z,75.49
2023-03-04T22:01:16.009Z,75.59
2023-03-04T22:03:46.231Z,75.52
2023-03-04T22:06:16.379Z,75.83
2023-03-04T22:08:46.342Z,75.60
2023-03-04T22:11:19.392Z,75.63
2023-03-04T22:13:50.645Z,75.73
2023-03-04T22:16:20.788Z,75.86
2023-03-04T22:18:50.691Z,75.78
2023-03-04T22:21:22.372Z,75.98
2023-03-04T22:23:52.308Z,76.03
2023-03-04T22:26:32.675Z,76.10
2023-03-04T22:29:04.160Z,76.13
2023-03-04T22:31:36.020Z,76.17
2023-03-04T22:34:08.911Z,76.01
2023-03-04T22:36:40.656Z,76.15
2023-03-04T22:39:13.560Z,76.39
2023-03-04T22:41:46.072Z,76.31
2023-03-04T22:44:16.698Z,76.64
2023-03-04T22:46:46.716Z,77.07
2023-03-04T22:49:17.728Z,77.02
2023-03-04T22:51:47.995Z,77.37
2023-03-04T22:54:20.382Z,77.35
2023-03-04T22:56:53.753Z,77.15
2023-03-04T22:59:24.856Z,77.32
2023-03-04T23:01:56.613Z,77.03
2023-03-04T23:04:30.405Z,77.24
2023-03-04T23:07:02.365Z,77.44
2023-03-04T23:09:34.148Z,76.98
2023-03-04T23:12:09.684Z,77.18
2023-03-04T23:14:43.836Z,77.11
2023-03-04T23:17:15.766Z,77.15
2023-03-04T23:19:47.972Z,77.10
2023-03-04T23:22:21.233Z,77.23
2023-03-04T23:24:53.385Z,76.86
2023-03-04T23:27:27.713Z,76.89
2023-03-04T23:29:58.274Z,76.99
2023-03-04T23:32:28.395Z,77.21
2023-03-04T23:34:58.386Z,77.28
2023-03-04T23:37:28.429Z,77.25
2023-03-04T23:39:58.287Z,77.14
2023-03-04T23:42:30.922Z,77.02
2023-03-04T23:45:00.881Z,77.23
2023-03-04T23:47:32.625Z,77.08
2023-03-04T23:50:06.023Z,77.44
2023-03-04T23:52:38.475Z,77.45
2023-03-04T23:55:11.200Z,77.38
2023-03-04T23:57:45.264Z,77.36
